createdAt,value
2017-08-14T00:00:29.728Z,20.56
2017-08-14T00:02:57.533Z,20.57
2017-08-14T00:05:25.408Z,20.54
2017-08-14T00:07:53.129Z,20.48
2017-08-14T00:10:21.092Z,20.54
2017-08-14T00:12:48.913Z,20.46
2017-08-14T00:15:16.730Z,20.44
2017-08-14T00:17:44.694Z,20.34
2017-08-14T00:20:12.609Z,20.34
2017-08-14T00:22:40.331Z,20.33
2017-08-14T00:25:08.295Z,20.30
2017-08-14T00:27:36.212Z,20.42
2017-08-14T00:30:03.867Z,20.42
2017-08-14T00:32:31.521Z,20.41
2017-08-14T00:34:59.399Z,20.30
2017-08-14T00:37:27.090Z,20.30
2017-08-14T00:39:54.898Z,20.31
2017-08-14T00:42:22.837Z,20.30
2017-08-14T00:44:50.664Z,20.22
2017-08-14T00:47:18.403Z,20.23
2017-08-14T00:49:46.175Z,20.23
2017-08-14T00:52:14.057Z,20.28
2017-08-14T00:54:41.701Z,20.24
2017-08-14T00:57:10.468Z,20.22
2017-08-14T00:59:38.269Z,20.25
2017-08-14T01:02:06.101Z,20.35
2017-08-14T01:04:33.846Z,20.38
2017-08-14T01:07:01.667Z,20.39
2017-08-14T01:09:29.318Z,20.30
2017-08-14T01:11:56.991Z,20.21
2017-08-14T01:14:24.653Z,20.16
2017-08-14T01:16:52.311Z,20.27
2017-08-14T01:19:20.074Z,20.29
2017-08-14T01:21:48.012Z,20.30
2017-08-14T01:24:15.781Z,20.32
2017-08-14T01:26:43.749Z,20.29
2017-08-14T01:29:11.487Z,20.33
2017-08-14T01:31:39.518Z,20.42
2017-08-14T01:34:07.249Z,20.43
2017-08-14T01:36:35.045Z,20.43
2017-08-14T01:39:02.913Z,20.44
2017-08-14T01:41:30.652Z,20.42
2017-08-14T01:43:58.646Z,20.39
2017-08-14T01:46:26.307Z,20.31
2017-08-14T01:48:54.169Z,20.41
2017-08-14T01:51:21.893Z,20.52
2017-08-14T01:53:49.698Z,20.63
2017-08-14T01:56:17.552Z,20.61
2017-08-14T01:58:45.439Z,20.72
2017-08-14T02:01:13.408Z,20.71
2017-08-14T02:03:41.225Z,20.66
2017-08-14T02:06:09.194Z,20.63
2017-08-14T02:08:36.905Z,20.64
2017-08-14T02:11:04.929Z,20.73
2017-08-14T02:13:33.820Z,20.77
2017-08-14T02:16:01.427Z,20.79
2017-08-14T02:18:29.330Z,20.95
2017-08-14T02:20:57.046Z,20.92
2017-08-14T02:23:24.991Z,20.91
2017-08-14T02:25:52.996Z,20.90
2017-08-14T02:28:20.846Z,20.85
2017-08-14T02:30:48.591Z,20.81
2017-08-14T02:33:16.359Z,20.77
2017-08-14T02:35:44.095Z,20.72
2017-08-14T02:38:12.126Z,20.68
2017-08-14T02:40:40.105Z,20.71
2017-08-14T02:43:08.067Z,20.78
2017-08-14T02:45:35.794Z,20.89
2017-08-14T02:48:03.783Z,20.92
2017-08-14T02:50:31.727Z,20.95
2017-08-14T02:52:59.693Z,21.02
2017-08-14T02:55:27.605Z,20.89
2017-08-14T02:57:55.452Z,20.80
2017-08-14T03:00:23.446Z,20.81
2017-08-14T03:02:51.410Z,20.82
2017-08-14T03:05:19.252Z,20.85
2017-08-14T03:07:46.938Z,21.02
2017-08-14T03:10:14.805Z,21.07
2017-08-14T03:12:42.875Z,21.07
2017-08-14T03:15:10.595Z,21.04
2017-08-14T03:17:38.617Z,21.13
2017-08-14T03:20:06.255Z,21.14
2017-08-14T03:22:33.999Z,21.07
2017-08-14T03:25:01.731Z,21.06
2017-08-14T03:27:29.342Z,21.03
2017-08-14T03:29:57.130Z,20.97
2017-08-14T03:32:24.997Z,21.07
2017-08-14T03:34:52.705Z,21.11
2017-08-14T03:37:20.673Z,21.09
2017-08-14T03:39:48.392Z,21.11
2017-08-14T03:42:16.234Z,21.26
2017-08-14T03:44:44.121Z,21.33
2017-08-14T03:47:12.194Z,21.26
2017-08-14T03:49:39.912Z,21.29
2017-08-14T03:52:07.878Z,21.38
2017-08-14T03:54:35.946Z,21.45
2017-08-14T03:57:03.764Z,21.49
2017-08-14T04:01:58.848Z,21.40
2017-08-14T04:04:26.765Z,21.44
2017-08-14T04:06:54.719Z,21.48
2017-08-14T04:09:22.648Z,21.49
2017-08-14T04:11:50.657Z,21.43
2017-08-14T04:14:18.679Z,21.51
2017-08-14T04:16:46.748Z,21.52
2017-08-14T04:19:14.670Z,21.62
2017-08-14T04:21:42.382Z,21.72
2017-08-14T04:24:10.401Z,21.81
2017-08-14T04:26:38.117Z,21.86
2017-08-14T04:29:05.929Z,21.86
2017-08-14T04:31:33.945Z,21.76
2017-08-14T04:34:01.768Z,21.64
2017-08-14T04:36:29.635Z,21.64
2017-08-14T04:38:57.604Z,21.63
2017-08-14T04:41:25.369Z,21.71
2017-08-14T04:43:53.340Z,21.69
2017-08-14T04:46:21.375Z,21.73
2017-08-14T04:48:49.422Z,21.59
2017-08-14T04:51:17.349Z,21.44
2017-08-14T04:53:45.418Z,21.46
2017-08-14T04:56:13.271Z,21.50
2017-08-14T04:58:41.147Z,21.45
2017-08-14T05:01:09.207Z,21.32
2017-08-14T05:03:37.349Z,21.31
2017-08-14T05:06:05.312Z,21.26
2017-08-14T05:08:33.133Z,21.20
2017-08-14T05:11:01.099Z,21.26
2017-08-14T05:13:28.938Z,21.28
2017-08-14T05:15:56.984Z,21.32
2017-08-14T05:18:24.905Z,21.37
2017-08-14T05:20:52.619Z,21.39
2017-08-14T05:23:20.637Z,21.31
2017-08-14T05:25:48.351Z,21.30
2017-08-14T05:28:15.960Z,21.19
2017-08-14T05:30:43.829Z,21.03
2017-08-14T05:33:11.675Z,20.92
2017-08-14T05:35:39.563Z,20.84
2017-08-14T05:38:07.634Z,20.82
2017-08-14T05:40:35.350Z,20.90
2017-08-14T05:43:03.319Z,20.99
2017-08-14T05:45:31.235Z,21.01
2017-08-14T05:47:59.078Z,21.12
2017-08-14T05:50:26.821Z,21.25
2017-08-14T05:52:54.834Z,21.35
2017-08-14T05:55:22.679Z,21.48
2017-08-14T05:57:50.569Z,21.68
2017-08-14T06:00:19.459Z,21.87
2017-08-14T06:02:47.481Z,22.00
2017-08-14T06:05:15.400Z,22.24
2017-08-14T06:07:43.242Z,22.13
2017-08-14T06:10:10.982Z,22.30
2017-08-14T06:12:38.850Z,22.72
2017-08-14T06:15:06.865Z,22.83
2017-08-14T06:17:34.708Z,23.09
2017-08-14T06:20:02.397Z,23.27
2017-08-14T06:22:30.468Z,23.36
2017-08-14T06:24:58.185Z,23.28
2017-08-14T06:27:26.203Z,23.28
2017-08-14T06:29:53.861Z,23.46
2017-08-14T06:32:21.523Z,23.21
2017-08-14T06:34:49.259Z,22.92
2017-08-14T06:37:17.258Z,22.79
2017-08-14T06:39:45.328Z,22.91
2017-08-14T06:42:13.305Z,23.23
2017-08-14T06:44:41.268Z,23.68
2017-08-14T06:47:08.990Z,24.43
2017-08-14T06:49:36.903Z,24.92
2017-08-14T06:52:04.717Z,24.99
2017-08-14T06:54:32.712Z,24.99
2017-08-14T06:57:00.580Z,25.87
2017-08-14T06:59:28.299Z,25.94
2017-08-14T07:01:56.336Z,28.06
2017-08-14T07:04:24.202Z,30.47
2017-08-14T07:06:52.246Z,30.45
2017-08-14T07:09:19.936Z,29.63
2017-08-14T07:11:47.783Z,28.92
2017-08-14T07:14:15.626Z,28.53
2017-08-14T07:16:43.330Z,30.35
2017-08-14T07:19:11.063Z,30.85
2017-08-14T07:21:39.027Z,29.63
2017-08-14T07:24:06.933Z,28.90
2017-08-14T07:26:34.577Z,29.60
2017-08-14T07:29:02.253Z,30.77
2017-08-14T07:31:29.975Z,31.63
2017-08-14T07:33:57.990Z,32.61
2017-08-14T07:36:25.651Z,32.47
2017-08-14T07:38:53.378Z,31.64
2017-08-14T07:41:21.365Z,32.54
2017-08-14T07:43:49.253Z,33.58
2017-08-14T07:46:16.975Z,33.65
2017-08-14T07:48:44.890Z,34.62
2017-08-14T07:51:12.763Z,34.72
2017-08-14T07:53:40.516Z,34.25
2017-08-14T07:56:08.223Z,34.10
2017-08-14T07:58:36.210Z,34.13
2017-08-14T08:01:03.951Z,34.11
2017-08-14T08:03:31.773Z,33.75
2017-08-14T08:05:59.852Z,34.60
2017-08-14T08:08:27.514Z,34.58
2017-08-14T08:10:55.173Z,34.36
2017-08-14T08:13:23.274Z,34.19
2017-08-14T08:15:51.081Z,34.39
2017-08-14T08:18:18.979Z,34.39
2017-08-14T08:20:46.917Z,32.65
2017-08-14T08:23:14.908Z,32.33
2017-08-14T08:25:42.577Z,32.94
2017-08-14T08:28:10.496Z,33.15
2017-08-14T08:30:38.316Z,32.57
2017-08-14T08:33:06.153Z,32.74
2017-08-14T08:35:33.856Z,32.37
2017-08-14T08:38:01.915Z,31.68
2017-08-14T08:40:29.633Z,31.63
2017-08-14T08:42:57.622Z,33.46
2017-08-14T08:45:25.308Z,33.93
2017-08-14T08:47:53.033Z,32.87
2017-08-14T08:50:20.700Z,33.85
2017-08-14T08:52:48.304Z,33.23
2017-08-14T08:55:15.915Z,32.46
2017-08-14T08:57:43.571Z,32.27
2017-08-14T09:00:11.394Z,32.28
2017-08-14T09:02:39.147Z,33.21
2017-08-14T09:05:06.977Z,33.44
2017-08-14T09:07:34.881Z,32.26
2017-08-14T09:10:02.954Z,31.86
2017-08-14T09:12:30.615Z,31.16
2017-08-14T09:14:58.272Z,30.76
2017-08-14T09:17:25.986Z,30.51
2017-08-14T09:19:54.011Z,30.08
2017-08-14T09:22:21.672Z,30.38
2017-08-14T09:24:49.389Z,31.25
2017-08-14T09:27:17.357Z,30.49
2017-08-14T09:29:45.180Z,29.69
2017-08-14T09:32:12.997Z,29.09
2017-08-14T09:34:40.859Z,28.97
2017-08-14T09:37:08.875Z,29.79
2017-08-14T09:39:36.846Z,30.56
2017-08-14T09:42:04.607Z,31.36
2017-08-14T09:44:32.454Z,31.28
2017-08-14T09:47:00.341Z,31.99
2017-08-14T09:49:27.977Z,32.50
2017-08-14T09:51:55.664Z,33.73
2017-08-14T09:54:23.498Z,34.35
2017-08-14T09:56:51.241Z,34.25
2017-08-14T09:59:19.049Z,33.92
2017-08-14T10:01:46.923Z,33.88
2017-08-14T10:04:14.765Z,32.88
2017-08-14T10:06:42.511Z,31.28
2017-08-14T10:09:10.533Z,30.39
2017-08-14T10:11:38.543Z,30.78
2017-08-14T10:14:06.471Z,31.10
2017-08-14T10:16:34.105Z,31.00
2017-08-14T10:19:02.147Z,31.14
2017-08-14T10:21:29.857Z,31.06
2017-08-14T10:23:57.706Z,31.03
2017-08-14T10:26:25.502Z,30.37
2017-08-14T10:28:53.313Z,30.28
2017-08-14T10:31:21.326Z,30.65
2017-08-14T10:33:49.401Z,30.49
2017-08-14T10:36:17.273Z,30.68
2017-08-14T10:38:45.108Z,31.01
2017-08-14T10:41:12.854Z,31.16
2017-08-14T10:43:40.818Z,31.17
2017-08-14T10:46:08.527Z,31.76
2017-08-14T10:48:36.187Z,31.64
2017-08-14T10:51:04.245Z,31.91
2017-08-14T10:53:31.919Z,32.18
2017-08-14T10:55:59.779Z,33.28
2017-08-14T10:58:27.524Z,33.86
2017-08-14T11:00:55.513Z,33.43
2017-08-14T11:03:23.258Z,33.33
2017-08-14T11:05:50.851Z,32.90
2017-08-14T11:08:18.569Z,33.05
2017-08-14T11:10:46.584Z,34.10
2017-08-14T11:13:14.553Z,35.40
2017-08-14T11:15:42.524Z,36.00
2017-08-14T11:18:10.238Z,35.31
2017-08-14T11:20:37.822Z,34.00
2017-08-14T11:23:05.511Z,33.52
2017-08-14T11:25:33.338Z,32.96
2017-08-14T11:28:01.081Z,32.24
2017-08-14T11:30:28.975Z,32.71
2017-08-14T11:32:56.771Z,32.64
2017-08-14T11:35:24.601Z,32.82
2017-08-14T11:37:52.351Z,32.58
2017-08-14T11:40:20.218Z,33.55
2017-08-14T11:42:48.028Z,34.01
2017-08-14T11:45:15.901Z,33.74
2017-08-14T11:47:43.743Z,32.98
2017-08-14T11:50:11.634Z,32.81
2017-08-14T11:52:39.355Z,31.58
2017-08-14T11:55:07.368Z,30.75
2017-08-14T11:57:35.030Z,30.91
2017-08-14T12:00:02.880Z,31.13
2017-08-14T12:02:30.598Z,31.34
2017-08-14T12:04:58.412Z,32.49
2017-08-14T12:07:26.160Z,33.48
2017-08-14T12:09:54.025Z,34.31
2017-08-14T12:12:21.989Z,33.91
2017-08-14T12:14:49.894Z,34.65
2017-08-14T12:17:17.552Z,34.33
2017-08-14T12:19:45.392Z,34.88
2017-08-14T12:22:13.289Z,33.90
2017-08-14T12:24:41.362Z,33.88
2017-08-14T12:27:09.194Z,35.41
2017-08-14T12:29:37.094Z,35.95
2017-08-14T12:32:04.961Z,35.57
2017-08-14T12:34:32.801Z,33.95
2017-08-14T12:37:00.542Z,33.30
2017-08-14T12:39:28.356Z,31.82
2017-08-14T12:41:56.124Z,32.45
2017-08-14T12:44:23.944Z,31.99
2017-08-14T12:46:51.908Z,32.57
2017-08-14T12:49:19.800Z,32.77
2017-08-14T12:51:47.692Z,33.30
2017-08-14T12:54:15.353Z,34.27
2017-08-14T12:56:43.014Z,33.60
2017-08-14T12:59:10.636Z,33.39
2017-08-14T13:01:38.294Z,32.85
2017-08-14T13:04:05.956Z,33.12
2017-08-14T13:06:33.796Z,31.91
2017-08-14T13:09:01.536Z,31.49
2017-08-14T13:11:29.532Z,31.34
2017-08-14T13:13:57.375Z,31.48
2017-08-14T13:16:25.209Z,31.26
2017-08-14T13:18:53.035Z,30.86
2017-08-14T13:21:20.659Z,31.22
2017-08-14T13:23:48.283Z,31.01
2017-08-14T13:26:15.973Z,30.53
2017-08-14T13:28:43.643Z,30.76
2017-08-14T13:31:11.521Z,30.95
2017-08-14T13:33:39.263Z,30.43
2017-08-14T13:36:07.224Z,30.21
2017-08-14T13:38:35.297Z,30.13
2017-08-14T13:41:03.039Z,29.73
2017-08-14T13:43:30.835Z,29.74
2017-08-14T13:45:58.576Z,29.81
2017-08-14T13:48:26.294Z,29.50
2017-08-14T13:50:54.136Z,29.89
2017-08-14T13:53:22.110Z,30.45
2017-08-14T13:55:49.762Z,30.70
2017-08-14T13:58:17.432Z,31.01
2017-08-14T14:00:45.505Z,31.25
2017-08-14T14:03:13.221Z,31.14
2017-08-14T14:05:41.242Z,31.32
2017-08-14T14:08:09.107Z,30.89
2017-08-14T14:10:36.753Z,30.94
2017-08-14T14:13:04.635Z,30.73
2017-08-14T14:15:32.653Z,30.51
2017-08-14T14:18:00.548Z,30.22
2017-08-14T14:20:28.439Z,30.24
2017-08-14T14:22:56.505Z,30.06
2017-08-14T14:25:24.350Z,29.79
2017-08-14T14:27:52.028Z,29.72
2017-08-14T14:30:19.761Z,29.72
2017-08-14T14:32:47.775Z,29.79
2017-08-14T14:35:15.620Z,29.79
2017-08-14T14:37:43.301Z,29.98
2017-08-14T14:40:11.151Z,30.04
2017-08-14T14:42:38.820Z,29.98
2017-08-14T14:45:06.540Z,29.82
2017-08-14T14:47:34.571Z,29.76
2017-08-14T14:50:02.393Z,29.65
2017-08-14T14:52:30.198Z,29.59
2017-08-14T14:54:58.224Z,29.56
2017-08-14T14:57:26.022Z,29.60
2017-08-14T14:59:53.742Z,29.73
2017-08-14T15:02:21.761Z,29.98
2017-08-14T15:04:49.474Z,30.15
2017-08-14T15:07:17.501Z,30.11
2017-08-14T15:09:45.075Z,30.15
2017-08-14T15:12:12.800Z,30.13
2017-08-14T15:14:40.424Z,29.98
2017-08-14T15:17:08.354Z,29.67
2017-08-14T15:19:36.404Z,29.65
2017-08-14T15:22:04.087Z,29.57
2017-08-14T15:24:31.735Z,29.30
2017-08-14T15:26:59.405Z,29.00
2017-08-14T15:29:27.027Z,28.88
2017-08-14T15:31:54.726Z,28.64
2017-08-14T15:34:22.456Z,28.39
2017-08-14T15:36:50.264Z,28.31
2017-08-14T15:39:17.858Z,28.13
2017-08-14T15:41:45.589Z,27.86
2017-08-14T15:44:13.200Z,27.67
2017-08-14T15:46:40.911Z,27.60
2017-08-14T15:49:08.568Z,27.54
2017-08-14T15:51:36.201Z,27.56
2017-08-14T15:54:03.892Z,27.45
2017-08-14T15:56:31.554Z,27.48
2017-08-14T15:58:59.217Z,27.49
2017-08-14T16:01:27.047Z,27.50
2017-08-14T16:03:54.746Z,27.45
2017-08-14T16:06:22.603Z,27.46
2017-08-14T16:08:50.280Z,27.44
2017-08-14T16:11:17.920Z,27.27
2017-08-14T16:13:45.537Z,27.30
2017-08-14T16:16:13.379Z,27.26
2017-08-14T16:18:41.117Z,27.22
2017-08-14T16:21:09.205Z,27.15
2017-08-14T16:23:37.047Z,27.14
2017-08-14T16:26:04.714Z,27.11
2017-08-14T16:28:32.395Z,27.00
2017-08-14T16:31:00.009Z,27.02
2017-08-14T16:33:27.920Z,26.88
2017-08-14T16:35:55.777Z,26.90
2017-08-14T16:38:23.626Z,26.78
2017-08-14T16:40:51.524Z,26.72
2017-08-14T16:43:19.443Z,26.73
2017-08-14T16:45:47.251Z,26.72
2017-08-14T16:48:14.905Z,26.66
2017-08-14T16:50:42.641Z,26.62
2017-08-14T16:53:10.650Z,26.59
2017-08-14T16:55:38.306Z,26.51
2017-08-14T16:58:05.977Z,25.89
2017-08-14T17:00:33.811Z,25.66
2017-08-14T17:03:01.386Z,25.53
2017-08-14T17:05:29.245Z,25.44
2017-08-14T17:07:56.827Z,25.40
2017-08-14T17:10:24.484Z,25.28
2017-08-14T17:12:52.138Z,25.23
2017-08-14T17:15:19.759Z,25.20
2017-08-14T17:17:47.464Z,25.19
2017-08-14T17:20:15.086Z,25.22
2017-08-14T17:22:43.002Z,25.24
2017-08-14T17:25:10.731Z,25.28
2017-08-14T17:27:38.527Z,25.33
2017-08-14T17:30:06.195Z,25.33
2017-08-14T17:32:33.856Z,25.36
2017-08-14T17:35:02.341Z,25.34
2017-08-14T17:37:30.079Z,25.33
2017-08-14T17:39:57.981Z,25.27
2017-08-14T17:42:25.940Z,25.22
2017-08-14T17:44:53.795Z,25.21
2017-08-14T17:47:21.677Z,25.18
2017-08-14T17:49:49.581Z,25.18
2017-08-14T17:52:17.614Z,25.15
2017-08-14T17:54:45.663Z,25.05
2017-08-14T17:57:13.725Z,24.93
2017-08-14T17:59:41.425Z,24.95
2017-08-14T18:02:09.284Z,25.01
2017-08-14T18:04:37.007Z,25.02
2017-08-14T18:07:04.998Z,24.92
2017-08-14T18:09:32.743Z,24.91
2017-08-14T18:12:00.710Z,24.96
2017-08-14T18:14:28.530Z,24.87
2017-08-14T18:16:56.398Z,24.97
2017-08-14T18:19:24.309Z,25.01
2017-08-14T18:21:52.129Z,25.00
2017-08-14T18:24:19.930Z,25.03
2017-08-14T18:26:47.863Z,25.06
2017-08-14T18:29:15.450Z,24.99
2017-08-14T18:31:43.316Z,24.87
2017-08-14T18:34:11.353Z,24.90
2017-08-14T18:36:39.079Z,24.89
2017-08-14T18:39:07.054Z,24.83
2017-08-14T18:41:34.743Z,24.72
2017-08-14T18:44:02.615Z,24.67
2017-08-14T18:46:30.326Z,24.64
2017-08-14T18:48:58.346Z,24.54
2017-08-14T18:51:26.180Z,24.55
2017-08-14T18:53:53.865Z,24.53
2017-08-14T18:56:21.945Z,24.46
2017-08-14T18:58:49.812Z,24.44
2017-08-14T19:01:17.455Z,24.40
2017-08-14T19:03:45.195Z,24.28
2017-08-14T19:06:13.059Z,24.30
2017-08-14T19:08:42.622Z,24.23
2017-08-14T19:11:09.160Z,24.29
2017-08-14T19:13:36.913Z,24.36
2017-08-14T19:16:04.886Z,24.37
2017-08-14T19:18:33.103Z,24.37
2017-08-14T19:21:00.845Z,24.39
2017-08-14T19:23:28.684Z,24.43
2017-08-14T19:25:56.869Z,24.43
2017-08-14T19:28:26.341Z,24.47
2017-08-14T19:30:55.157Z,24.49
2017-08-14T19:33:24.888Z,24.49
2017-08-14T19:35:53.991Z,24.46
2017-08-14T19:38:22.974Z,24.26
2017-08-14T19:40:51.953Z,24.25
2017-08-14T19:43:20.327Z,24.22
2017-08-14T19:45:48.893Z,24.11
2017-08-14T19:48:17.133Z,24.06
2017-08-14T19:50:45.559Z,24.01
2017-08-14T19:53:13.686Z,23.92
2017-08-14T19:55:42.345Z,23.93
2017-08-14T19:58:11.708Z,23.91
2017-08-14T20:00:41.369Z,23.92
2017-08-14T20:03:10.119Z,23.85
2017-08-14T20:05:39.386Z,23.79
2017-08-14T20:08:08.553Z,23.78
2017-08-14T20:10:37.429Z,23.72
2017-08-14T20:13:06.492Z,23.63
2017-08-14T20:15:35.361Z,23.58
2017-08-14T20:18:03.049Z,23.50
2017-08-14T20:20:30.696Z,23.36
2017-08-14T20:22:58.328Z,23.23
2017-08-14T20:25:26.244Z,23.17
2017-08-14T20:27:54.173Z,23.16
2017-08-14T20:30:21.907Z,23.09
2017-08-14T20:32:49.645Z,22.95
2017-08-14T20:35:17.313Z,22.95
2017-08-14T20:37:44.969Z,22.96
2017-08-14T20:40:12.618Z,22.97
2017-08-14T20:42:40.431Z,22.84
2017-08-14T20:45:08.270Z,22.84
2017-08-14T20:47:36.135Z,22.82
2017-08-14T20:50:04.002Z,22.74
2017-08-14T20:52:31.760Z,22.66
2017-08-14T20:54:59.406Z,22.61
2017-08-14T20:57:27.251Z,22.56
2017-08-14T20:59:55.054Z,22.48
2017-08-14T21:02:22.968Z,22.39
2017-08-14T21:04:50.684Z,22.18
2017-08-14T21:07:18.333Z,22.18
2017-08-14T21:09:46.001Z,22.16
2017-08-14T21:12:13.732Z,22.23
2017-08-14T21:14:41.741Z,22.12
2017-08-14T21:17:09.382Z,22.14
2017-08-14T21:19:37.061Z,22.09
2017-08-14T21:22:04.724Z,22.02
2017-08-14T21:24:32.716Z,21.94
2017-08-14T21:27:00.310Z,21.91
2017-08-14T21:29:28.174Z,21.75
2017-08-14T21:31:55.981Z,21.67
2017-08-14T21:34:23.988Z,21.60
2017-08-14T21:36:51.721Z,21.65
2017-08-14T21:39:19.745Z,21.64
2017-08-14T21:41:47.343Z,21.60
2017-08-14T21:44:15.255Z,21.65
2017-08-14T21:46:43.095Z,21.65
2017-08-14T21:49:10.848Z,21.73
2017-08-14T21:51:38.720Z,21.58
2017-08-14T21:54:06.525Z,21.48
2017-08-14T21:56:34.461Z,21.55
2017-08-14T21:59:02.185Z,21.44
2017-08-14T22:01:29.997Z,21.26
2017-08-14T22:03:57.842Z,21.27
2017-08-14T22:06:25.704Z,21.20
2017-08-14T22:08:53.746Z,21.09
2017-08-14T22:11:21.495Z,21.14
2017-08-14T22:13:49.303Z,21.15
2017-08-14T22:16:17.148Z,21.11
2017-08-14T22:18:45.050Z,21.07
2017-08-14T22:21:12.757Z,21.00
2017-08-14T22:23:40.584Z,20.92
2017-08-14T22:26:08.167Z,21.00
2017-08-14T22:28:35.801Z,20.96
2017-08-14T22:31:03.964Z,20.91
2017-08-14T22:33:31.821Z,20.80
2017-08-14T22:35:59.688Z,20.62
2017-08-14T22:38:27.784Z,20.58
2017-08-14T22:40:55.853Z,20.56
2017-08-14T22:43:23.914Z,20.57
2017-08-14T22:45:51.996Z,20.58
2017-08-14T22:48:19.849Z,20.46
2017-08-14T22:50:47.589Z,20.42
2017-08-14T22:53:15.593Z,20.41
2017-08-14T22:55:43.262Z,20.35
2017-08-14T22:58:11.333Z,20.27
2017-08-14T23:00:39.219Z,20.28
2017-08-14T23:03:07.062Z,20.31
2017-08-14T23:05:35.092Z,20.26
2017-08-14T23:08:03.155Z,20.10
2017-08-14T23:10:31.186Z,20.09
2017-08-14T23:12:58.819Z,20.17
2017-08-14T23:15:26.802Z,20.21
2017-08-14T23:17:54.928Z,20.29
2017-08-14T23:20:22.918Z,20.44
2017-08-14T23:22:50.681Z,20.38
2017-08-14T23:25:18.478Z,20.52
2017-08-14T23:27:46.206Z,20.47
2017-08-14T23:30:14.205Z,20.50
2017-08-14T23:32:42.077Z,20.41
2017-08-14T23:35:09.989Z,20.26
2017-08-14T23:37:38.012Z,20.07
2017-08-14T23:40:06.053Z,19.94
2017-08-14T23:42:34.344Z,19.83
2017-08-14T23:45:02.228Z,19.80
2017-08-14T23:47:30.104Z,19.87
2017-08-14T23:49:58.543Z,19.92
2017-08-14T23:52:26.604Z,19.98
2017-08-14T23:54:54.720Z,19.92
2017-08-14T23:57:22.382Z,19.82
2017-08-14T23:59:50.257Z,19.81
